createdAt,value
2018-09-06T00:01:53.939Z,20.20
2018-09-06T00:04:21.135Z,20.20
2018-09-06T00:06:48.342Z,20.20
2018-09-06T00:09:15.635Z,20.10
2018-09-06T00:11:42.835Z,20.10
2018-09-06T00:14:10.216Z,20.10
2018-09-06T00:16:37.697Z,20.00
2018-09-06T00:19:05.234Z,20.00
2018-09-06T00:21:32.870Z,20.00
2018-09-06T00:24:00.283Z,19.90
2018-09-06T00:26:27.716Z,20.00
2018-09-06T00:28:55.141Z,19.80
2018-09-06T00:31:22.532Z,19.70
2018-09-06T00:33:49.953Z,19.80
2018-09-06T00:36:17.365Z,19.80
2018-09-06T00:38:44.736Z,19.90
2018-09-06T00:41:12.145Z,19.90
2018-09-06T00:43:39.572Z,19.90
2018-09-06T00:46:07.036Z,19.90
2018-09-06T00:48:34.431Z,19.90
2018-09-06T00:51:02.559Z,19.90
2018-09-06T00:53:30.167Z,19.90
2018-09-06T00:55:57.893Z,19.90
2018-09-06T00:58:26.085Z,19.80
2018-09-06T01:00:53.944Z,19.80
2018-09-06T01:03:21.499Z,19.80
2018-09-06T01:05:49.510Z,19.80
2018-09-06T01:08:17.335Z,19.80
2018-09-06T01:10:44.919Z,19.70
2018-09-06T01:13:12.708Z,19.60
2018-09-06T01:15:40.172Z,19.60
2018-09-06T01:18:07.663Z,19.70
2018-09-06T01:20:35.114Z,19.60
2018-09-06T01:23:02.748Z,19.60
2018-09-06T01:25:36.180Z,19.60
2018-09-06T01:28:03.810Z,19.50
2018-09-06T01:30:31.231Z,19.50
2018-09-06T01:32:58.679Z,19.50
2018-09-06T01:35:26.116Z,19.40
2018-09-06T01:37:54.460Z,19.40
2018-09-06T01:40:21.955Z,19.40
2018-09-06T01:42:49.364Z,19.40
2018-09-06T01:45:16.803Z,19.30
2018-09-06T01:47:44.231Z,19.20
2018-09-06T01:50:11.900Z,19.30
2018-09-06T01:52:39.267Z,19.30
2018-09-06T01:55:06.672Z,19.30
2018-09-06T01:57:34.087Z,19.40
2018-09-06T02:00:01.497Z,19.30
2018-09-06T02:02:28.891Z,19.30
2018-09-06T02:04:56.290Z,19.30
2018-09-06T02:07:23.775Z,19.30
2018-09-06T02:09:51.203Z,19.30
2018-09-06T02:12:18.628Z,19.30
2018-09-06T02:14:46.007Z,19.30
2018-09-06T02:17:14.409Z,19.30
2018-09-06T02:19:41.841Z,19.30
2018-09-06T02:22:09.221Z,19.30
2018-09-06T02:24:36.637Z,19.20
2018-09-06T02:27:04.019Z,19.20
2018-09-06T02:29:31.388Z,19.10
2018-09-06T02:31:59.227Z,19.20
2018-09-06T02:34:26.675Z,19.10
2018-09-06T02:36:54.075Z,19.00
2018-09-06T02:39:21.466Z,19.00
2018-09-06T02:41:48.952Z,19.00
2018-09-06T02:44:16.331Z,18.90
2018-09-06T02:46:43.768Z,18.90
2018-09-06T02:49:11.135Z,18.90
2018-09-06T02:51:38.511Z,18.90
2018-09-06T02:54:05.831Z,18.80
2018-09-06T02:56:33.336Z,18.80
2018-09-06T02:59:00.542Z,18.80
2018-09-06T03:01:27.739Z,18.70
2018-09-06T03:03:54.995Z,18.70
2018-09-06T03:06:22.175Z,18.60
2018-09-06T03:08:49.439Z,18.60
2018-09-06T03:11:21.683Z,18.60
2018-09-06T03:13:50.582Z,18.60
2018-09-06T03:16:18.061Z,18.60
2018-09-06T03:18:45.279Z,18.60
2018-09-06T03:21:12.512Z,18.70
2018-09-06T03:23:39.676Z,18.70
2018-09-06T03:26:12.716Z,18.80
2018-09-06T03:28:39.882Z,18.70
2018-09-06T03:31:07.079Z,18.80
2018-09-06T03:33:34.239Z,18.90
2018-09-06T03:36:01.413Z,19.00
2018-09-06T03:38:28.567Z,19.00
2018-09-06T03:40:55.730Z,19.10
2018-09-06T03:43:22.947Z,19.10
2018-09-06T03:45:50.199Z,19.20
2018-09-06T03:48:17.385Z,19.20
2018-09-06T03:50:44.647Z,19.20
2018-09-06T03:53:11.822Z,19.20
2018-09-06T03:55:38.989Z,19.20
2018-09-06T03:58:06.251Z,19.10
2018-09-06T04:00:33.940Z,19.00
2018-09-06T04:03:01.107Z,19.10
2018-09-06T04:05:28.266Z,19.10
2018-09-06T04:07:55.466Z,19.10
2018-09-06T04:10:22.635Z,19.00
2018-09-06T04:12:49.915Z,19.10
2018-09-06T04:15:17.132Z,19.10
2018-09-06T04:17:44.368Z,19.20
2018-09-06T04:20:11.888Z,19.20
2018-09-06T04:22:44.656Z,19.20
2018-09-06T04:25:11.835Z,19.10
2018-09-06T04:27:39.007Z,19.20
2018-09-06T04:30:06.256Z,19.20
2018-09-06T04:32:33.468Z,19.20
2018-09-06T04:35:00.623Z,19.20
2018-09-06T04:37:27.788Z,19.20
2018-09-06T04:39:54.965Z,19.20
2018-09-06T04:42:22.133Z,19.10
2018-09-06T04:44:49.316Z,19.10
2018-09-06T04:47:16.564Z,19.10
2018-09-06T04:49:43.740Z,19.10
2018-09-06T04:52:10.924Z,19.10
2018-09-06T04:54:38.107Z,19.10
2018-09-06T04:57:05.340Z,19.20
2018-09-06T04:59:32.546Z,19.10
2018-09-06T05:01:59.713Z,19.10
2018-09-06T05:04:26.971Z,19.00
2018-09-06T05:06:54.424Z,19.00
2018-09-06T05:09:21.606Z,19.10
2018-09-06T05:11:48.797Z,19.20
2018-09-06T05:14:15.970Z,19.20
2018-09-06T05:16:43.187Z,19.30
2018-09-06T05:19:10.366Z,19.30
2018-09-06T05:21:37.575Z,19.30
2018-09-06T05:24:05.064Z,19.30
2018-09-06T05:26:32.244Z,19.30
2018-09-06T05:28:59.471Z,19.30
2018-09-06T05:31:26.711Z,19.30
2018-09-06T05:33:53.892Z,19.30
2018-09-06T05:36:21.189Z,19.40
2018-09-06T05:38:48.413Z,19.40
2018-09-06T05:41:15.635Z,19.20
2018-09-06T05:43:44.204Z,18.90
2018-09-06T05:46:11.415Z,18.60
2018-09-06T05:48:38.916Z,18.30
2018-09-06T05:51:06.128Z,18.20
2018-09-06T05:53:33.377Z,18.00
2018-09-06T05:56:00.593Z,18.00
2018-09-06T05:58:27.837Z,17.90
2018-09-06T06:00:55.088Z,17.80
2018-09-06T06:03:22.710Z,17.70
2018-09-06T06:05:51.740Z,17.80
2018-09-06T06:08:30.575Z,17.80
2018-09-06T06:10:57.764Z,17.80
2018-09-06T06:13:24.931Z,17.70
2018-09-06T06:15:52.187Z,17.70
2018-09-06T06:18:19.377Z,17.80
2018-09-06T06:20:46.567Z,17.80
2018-09-06T06:23:13.755Z,17.80
2018-09-06T06:25:40.931Z,17.80
2018-09-06T06:28:08.374Z,17.80
2018-09-06T06:30:37.151Z,17.80
2018-09-06T06:33:04.436Z,17.70
2018-09-06T06:35:31.620Z,17.80
2018-09-06T06:37:58.824Z,17.80
2018-09-06T06:40:26.021Z,17.80
2018-09-06T06:42:53.179Z,17.80
2018-09-06T06:45:20.374Z,18.00
2018-09-06T06:47:47.824Z,18.10
2018-09-06T06:50:15.089Z,18.20
2018-09-06T06:52:42.308Z,18.30
2018-09-06T06:55:09.900Z,18.30
2018-09-06T06:57:37.500Z,18.30
2018-09-06T07:00:04.811Z,18.30
2018-09-06T07:02:32.282Z,18.40
2018-09-06T07:04:59.490Z,18.40
2018-09-06T07:07:26.897Z,18.40
2018-09-06T07:09:54.107Z,18.40
2018-09-06T07:12:21.398Z,18.40
2018-09-06T07:14:48.730Z,18.40
2018-09-06T07:17:15.896Z,18.20
2018-09-06T07:19:43.104Z,18.20
2018-09-06T07:22:10.277Z,18.20
2018-09-06T07:24:37.436Z,18.30
2018-09-06T07:27:04.864Z,18.30
2018-09-06T07:29:32.055Z,18.30
2018-09-06T07:31:59.336Z,18.30
2018-09-06T07:34:26.572Z,18.30
2018-09-06T07:36:54.202Z,18.40
2018-09-06T07:39:21.492Z,18.40
2018-09-06T07:41:48.854Z,18.40
2018-09-06T07:44:16.051Z,18.30
2018-09-06T07:46:43.219Z,18.40
2018-09-06T07:49:10.451Z,18.40
2018-09-06T07:51:37.679Z,18.40
2018-09-06T07:54:04.855Z,18.50
2018-09-06T07:56:31.999Z,18.40
2018-09-06T07:58:59.327Z,18.40
2018-09-06T08:01:26.548Z,18.40
2018-09-06T08:03:53.751Z,18.30
2018-09-06T08:06:22.365Z,18.40
2018-09-06T08:08:50.273Z,18.40
2018-09-06T08:11:17.728Z,18.30
2018-09-06T08:16:42.248Z,18.20
2018-09-06T08:19:09.770Z,18.20
2018-09-06T08:21:40.409Z,18.20
2018-09-06T08:24:08.004Z,18.10
2018-09-06T08:26:35.403Z,18.20
2018-09-06T08:29:02.873Z,18.20
2018-09-06T08:31:30.619Z,18.20
2018-09-06T08:33:58.277Z,18.30
2018-09-06T08:36:27.937Z,18.20
2018-09-06T08:38:55.390Z,18.30
2018-09-06T08:41:22.790Z,18.30
2018-09-06T08:43:50.522Z,18.30
2018-09-06T08:46:17.947Z,18.40
2018-09-06T08:48:50.232Z,18.40
2018-09-06T08:51:17.999Z,18.40
2018-09-06T08:53:45.427Z,18.40
2018-09-06T08:56:12.992Z,18.40
2018-09-06T08:58:40.872Z,18.40
2018-09-06T09:01:19.207Z,18.40
2018-09-06T09:03:46.626Z,18.40
2018-09-06T09:06:14.138Z,18.40
2018-09-06T09:08:41.604Z,18.40
2018-09-06T09:11:13.759Z,18.40
2018-09-06T09:13:41.307Z,18.40
2018-09-06T09:16:08.803Z,18.40
2018-09-06T09:18:36.268Z,18.30
2018-09-06T09:21:03.656Z,18.40
2018-09-06T09:23:31.054Z,18.50
2018-09-06T09:26:06.859Z,18.50
2018-09-06T09:28:34.049Z,18.50
2018-09-06T09:31:01.368Z,18.40
2018-09-06T09:33:28.736Z,18.50
2018-09-06T09:35:56.261Z,18.50
2018-09-06T09:38:28.038Z,18.60
2018-09-06T09:40:55.404Z,18.60
2018-09-06T09:43:22.898Z,18.60
2018-09-06T09:45:50.300Z,18.60
2018-09-06T09:48:17.836Z,18.50
2018-09-06T09:53:14.515Z,18.60
2018-09-06T09:55:41.896Z,18.50
2018-09-06T09:58:09.231Z,18.40
2018-09-06T10:00:38.396Z,18.30
2018-09-06T10:03:15.543Z,18.50
2018-09-06T10:05:54.013Z,18.50
2018-09-06T10:08:26.910Z,18.30
2018-09-06T10:10:58.855Z,18.30
2018-09-06T10:13:26.053Z,18.30
2018-09-06T10:15:53.239Z,18.50
2018-09-06T10:18:20.547Z,18.30
2018-09-06T10:20:47.728Z,18.40
2018-09-06T10:23:14.892Z,18.50
2018-09-06T10:25:45.440Z,18.50
2018-09-06T10:28:12.899Z,18.60
2018-09-06T10:30:40.485Z,18.70
2018-09-06T10:33:07.942Z,18.70
2018-09-06T10:35:35.311Z,18.80
2018-09-06T10:38:02.763Z,18.70
2018-09-06T10:40:31.912Z,18.60
2018-09-06T10:42:59.323Z,18.50
2018-09-06T10:45:26.701Z,18.50
2018-09-06T10:47:54.125Z,18.40
2018-09-06T10:50:22.073Z,18.50
2018-09-06T10:52:53.963Z,18.70
2018-09-06T10:55:21.534Z,18.60
2018-09-06T10:57:49.090Z,18.60
2018-09-06T11:00:16.471Z,18.50
2018-09-06T11:02:43.877Z,18.70
2018-09-06T11:05:12.024Z,18.80
2018-09-06T11:07:40.643Z,18.90
2018-09-06T11:10:08.045Z,18.70
2018-09-06T11:12:35.394Z,18.80
2018-09-06T11:15:02.825Z,18.80
2018-09-06T11:17:30.783Z,18.90
2018-09-06T11:19:58.304Z,19.00
2018-09-06T11:22:25.778Z,19.00
2018-09-06T11:24:52.979Z,19.00
2018-09-06T11:27:20.358Z,19.00
2018-09-06T11:29:47.712Z,19.10
2018-09-06T11:32:15.092Z,19.10
2018-09-06T11:34:42.435Z,19.10
2018-09-06T11:37:09.779Z,19.20
2018-09-06T11:39:37.167Z,19.30
2018-09-06T11:42:04.531Z,19.40
2018-09-06T11:44:31.914Z,19.50
2018-09-06T11:46:59.470Z,19.50
2018-09-06T11:49:26.836Z,19.50
2018-09-06T11:51:54.268Z,19.50
2018-09-06T11:54:21.607Z,19.60
2018-09-06T11:56:51.001Z,19.70
2018-09-06T11:59:18.405Z,19.70
2018-09-06T12:01:45.811Z,19.50
2018-09-06T12:04:13.234Z,19.50
2018-09-06T12:06:40.583Z,19.60
2018-09-06T12:09:07.921Z,19.70
2018-09-06T12:11:39.150Z,19.60
2018-09-06T12:14:06.496Z,19.60
2018-09-06T12:16:33.875Z,19.70
2018-09-06T12:19:01.252Z,19.70
2018-09-06T12:21:28.603Z,19.70
2018-09-06T12:23:56.014Z,19.80
2018-09-06T12:26:25.210Z,19.80
2018-09-06T12:28:52.627Z,19.80
2018-09-06T12:31:20.040Z,19.80
2018-09-06T12:33:47.478Z,19.60
2018-09-06T12:36:14.865Z,19.60
2018-09-06T12:38:43.678Z,19.80
2018-09-06T12:41:14.286Z,19.90
2018-09-06T12:43:41.734Z,20.00
2018-09-06T12:46:09.083Z,20.10
2018-09-06T12:48:36.442Z,20.20
2018-09-06T12:51:03.871Z,20.10
2018-09-06T12:53:33.971Z,20.20
2018-09-06T12:56:01.595Z,20.30
2018-09-06T12:58:28.955Z,20.30
2018-09-06T13:00:56.404Z,20.30
2018-09-06T13:03:23.888Z,20.40
2018-09-06T13:05:51.328Z,20.50
2018-09-06T13:08:21.051Z,20.50
2018-09-06T13:10:48.767Z,20.60
2018-09-06T13:13:16.100Z,20.60
2018-09-06T13:15:43.470Z,20.70
2018-09-06T13:18:10.830Z,20.60
2018-09-06T13:20:41.876Z,20.30
2018-09-06T13:23:10.828Z,20.30
2018-09-06T13:25:38.384Z,20.50
2018-09-06T13:28:05.795Z,20.50
2018-09-06T13:30:33.111Z,20.70
2018-09-06T13:33:00.467Z,20.80
2018-09-06T13:35:27.895Z,21.00
2018-09-06T13:37:56.856Z,21.30
2018-09-06T13:40:24.203Z,21.50
2018-09-06T13:42:51.619Z,21.80
2018-09-06T13:45:18.991Z,21.90
2018-09-06T13:47:46.332Z,21.80
2018-09-06T13:50:13.689Z,21.70
2018-09-06T13:52:41.023Z,21.60
2018-09-06T13:55:08.443Z,21.60
2018-09-06T13:57:35.775Z,21.50
2018-09-06T14:00:03.339Z,21.50
2018-09-06T14:02:33.741Z,21.50
2018-09-06T14:05:01.143Z,21.50
2018-09-06T14:07:28.465Z,21.50
2018-09-06T14:09:55.859Z,21.40
2018-09-06T14:12:23.192Z,21.40
2018-09-06T14:14:50.623Z,21.50
2018-09-06T14:17:18.006Z,21.70
2018-09-06T14:19:48.584Z,22.10
2018-09-06T14:22:17.076Z,22.10
2018-09-06T14:24:44.457Z,22.30
2018-09-06T14:27:11.863Z,22.20
2018-09-06T14:29:39.358Z,22.10
2018-09-06T14:32:06.773Z,22.30
2018-09-06T14:34:37.942Z,22.30
2018-09-06T14:37:05.678Z,22.40
2018-09-06T14:39:33.084Z,22.30
2018-09-06T14:42:00.552Z,22.30
2018-09-06T14:44:27.955Z,22.20
2018-09-06T14:46:55.363Z,22.10
2018-09-06T14:49:22.811Z,22.00
2018-09-06T14:51:50.344Z,21.90
2018-09-06T14:54:17.820Z,21.80
2018-09-06T14:56:45.299Z,21.80
2018-09-06T14:59:12.716Z,21.70
2018-09-06T15:01:40.187Z,21.60
2018-09-06T15:04:07.754Z,21.60
2018-09-06T15:06:36.828Z,21.60
2018-09-06T15:09:06.275Z,21.60
2018-09-06T15:11:33.719Z,21.60
2018-09-06T15:14:01.283Z,21.60
2018-09-06T15:16:28.718Z,21.70
2018-09-06T15:18:56.223Z,21.70
2018-09-06T15:21:23.639Z,21.80
2018-09-06T15:23:51.156Z,21.80
2018-09-06T15:26:18.588Z,21.90
2018-09-06T15:28:46.130Z,21.90
2018-09-06T15:31:13.588Z,21.90
2018-09-06T15:33:41.142Z,22.00
2018-09-06T15:36:08.607Z,21.90
2018-09-06T15:38:35.995Z,21.90
2018-09-06T15:41:03.436Z,21.90
2018-09-06T15:43:30.874Z,21.90
2018-09-06T15:45:58.283Z,21.80
2018-09-06T15:48:25.661Z,21.90
2018-09-06T15:50:53.036Z,21.90
2018-09-06T15:53:25.007Z,21.80
2018-09-06T15:55:52.536Z,21.90
2018-09-06T15:58:19.860Z,21.80
2018-09-06T16:00:47.268Z,21.80
2018-09-06T16:03:14.658Z,21.80
2018-09-06T16:05:42.075Z,21.80
2018-09-06T16:08:11.057Z,21.70
2018-09-06T16:10:38.417Z,21.70
2018-09-06T16:13:05.843Z,21.70
2018-09-06T16:15:34.191Z,21.70
2018-09-06T16:18:02.467Z,21.70
2018-09-06T16:20:29.879Z,21.50
2018-09-06T16:22:57.263Z,21.50
2018-09-06T16:25:24.677Z,21.60
2018-09-06T16:27:52.157Z,21.60
2018-09-06T16:30:19.620Z,21.60
2018-09-06T16:32:48.894Z,21.60
2018-09-06T16:35:16.282Z,21.60
2018-09-06T16:37:43.615Z,21.50
2018-09-06T16:40:10.994Z,21.50
2018-09-06T16:42:38.414Z,21.50
2018-09-06T16:45:05.793Z,21.50
2018-09-06T16:47:34.293Z,21.50
2018-09-06T16:50:01.711Z,21.60
2018-09-06T16:52:29.234Z,21.50
2018-09-06T16:54:56.603Z,21.60
2018-09-06T16:57:23.963Z,21.50
2018-09-06T16:59:51.358Z,21.50
2018-09-06T17:02:20.276Z,21.50
2018-09-06T17:04:47.639Z,21.60
2018-09-06T17:07:15.060Z,21.50
2018-09-06T17:09:42.554Z,21.50
2018-09-06T17:12:09.871Z,21.50
2018-09-06T17:14:37.264Z,21.40
2018-09-06T17:17:06.672Z,21.50
2018-09-06T17:19:34.072Z,21.50
2018-09-06T17:22:01.437Z,21.30
2018-09-06T17:24:28.832Z,21.30
2018-09-06T17:26:56.159Z,21.30
2018-09-06T17:31:55.915Z,21.30
2018-09-06T17:34:23.338Z,21.20
2018-09-06T17:36:50.827Z,21.00
2018-09-06T17:39:18.340Z,20.90
2018-09-06T17:41:45.951Z,20.70
2018-09-06T17:44:15.112Z,20.60
2018-09-06T17:46:42.558Z,20.40
2018-09-06T17:49:09.997Z,20.20
2018-09-06T17:51:37.387Z,20.00
2018-09-06T17:54:04.815Z,19.90
2018-09-06T17:56:32.213Z,19.70
2018-09-06T17:58:59.703Z,19.60
2018-09-06T18:01:32.204Z,19.60
2018-09-06T18:03:59.952Z,19.50
2018-09-06T18:06:27.367Z,19.50
2018-09-06T18:08:54.886Z,19.40
2018-09-06T18:11:22.422Z,19.40
2018-09-06T18:13:53.585Z,19.30
2018-09-06T18:16:21.071Z,19.20
2018-09-06T18:18:48.506Z,19.20
2018-09-06T18:21:16.023Z,19.20
2018-09-06T18:23:43.425Z,19.10
2018-09-06T18:26:10.818Z,19.20
2018-09-06T18:28:43.123Z,19.10
2018-09-06T18:31:10.488Z,19.10
2018-09-06T18:33:37.848Z,19.10
2018-09-06T18:36:05.338Z,19.00
2018-09-06T18:38:32.719Z,19.00
2018-09-06T18:41:00.065Z,18.90
2018-09-06T18:43:58.514Z,18.90
2018-09-06T18:46:25.568Z,18.90
2018-09-06T18:48:52.763Z,18.90
2018-09-06T18:51:20.048Z,18.90
2018-09-06T18:53:47.303Z,18.80
2018-09-06T18:56:14.476Z,18.80
2018-09-06T18:58:41.636Z,18.90
2018-09-06T19:01:08.857Z,18.90
2018-09-06T19:03:36.004Z,18.80
2018-09-06T19:06:03.191Z,18.80
2018-09-06T19:08:30.366Z,18.70
2018-09-06T19:10:57.527Z,18.60
2018-09-06T19:13:24.722Z,18.60
2018-09-06T19:15:52.139Z,18.60
2018-09-06T19:18:19.359Z,18.60
2018-09-06T19:20:46.643Z,18.60
2018-09-06T19:23:13.807Z,18.60
2018-09-06T19:25:40.990Z,18.60
2018-09-06T19:28:08.227Z,18.60
2018-09-06T19:30:35.521Z,18.60
2018-09-06T19:33:02.719Z,18.60
2018-09-06T19:35:30.114Z,18.50
2018-09-06T19:37:57.377Z,18.40
2018-09-06T19:40:24.619Z,18.30
2018-09-06T19:42:51.859Z,18.40
2018-09-06T19:45:19.098Z,18.40
2018-09-06T19:47:46.497Z,18.30
2018-09-06T19:50:14.006Z,18.20
2018-09-06T19:52:41.402Z,18.10
2018-09-06T19:55:08.804Z,17.90
2018-09-06T19:57:36.711Z,17.90
2018-09-06T20:00:04.857Z,17.90
2018-09-06T20:02:32.307Z,17.80
2018-09-06T20:04:59.738Z,17.80
2018-09-06T20:07:27.155Z,17.80
2018-09-06T20:09:54.680Z,17.80
2018-09-06T20:12:22.121Z,17.70
2018-09-06T20:14:49.749Z,17.70
2018-09-06T20:17:17.263Z,17.80
2018-09-06T20:19:44.747Z,17.80
2018-09-06T20:22:12.175Z,17.60
2018-09-06T20:24:39.578Z,17.60
2018-09-06T20:27:07.320Z,17.60
2018-09-06T20:29:34.751Z,17.60
2018-09-06T20:32:04.315Z,17.60
2018-09-06T20:34:31.779Z,17.60
2018-09-06T20:36:59.148Z,17.60
2018-09-06T20:39:26.526Z,17.50
2018-09-06T20:41:53.967Z,17.50
2018-09-06T20:44:21.351Z,17.50
2018-09-06T20:46:51.640Z,17.40
2018-09-06T20:49:19.083Z,17.30
2018-09-06T20:51:46.459Z,17.40
2018-09-06T20:54:13.848Z,17.40
2018-09-06T20:56:41.276Z,17.40
2018-09-06T20:59:08.646Z,17.40
2018-09-06T21:01:40.163Z,17.50
2018-09-06T21:04:07.672Z,17.50
2018-09-06T21:06:35.059Z,17.40
2018-09-06T21:09:03.795Z,17.40
2018-09-06T21:11:31.303Z,17.40
2018-09-06T21:13:58.782Z,17.40
2018-09-06T21:16:26.275Z,17.40
2018-09-06T21:18:55.363Z,17.40
2018-09-06T21:21:22.841Z,17.40
2018-09-06T21:23:50.278Z,17.50
2018-09-06T21:26:17.775Z,17.60
2018-09-06T21:28:45.223Z,17.50
2018-09-06T21:31:15.375Z,17.40
2018-09-06T21:33:42.783Z,17.40
2018-09-06T21:36:10.313Z,17.40
2018-09-06T21:38:38.424Z,17.40
2018-09-06T21:41:05.995Z,17.40
2018-09-06T21:43:33.559Z,17.50
2018-09-06T21:46:01.036Z,17.60
2018-09-06T21:48:28.486Z,17.60
2018-09-06T21:50:55.935Z,17.60
2018-09-06T21:53:23.504Z,17.70
2018-09-06T21:55:51.010Z,17.60
2018-09-06T21:58:19.295Z,17.60
2018-09-06T22:00:46.705Z,17.60
2018-09-06T22:03:19.990Z,17.60
2018-09-06T22:05:47.616Z,17.50
2018-09-06T22:08:15.105Z,17.50
2018-09-06T22:10:42.533Z,17.60
2018-09-06T22:13:10.064Z,17.50
2018-09-06T22:15:37.578Z,17.60
2018-09-06T22:18:04.979Z,17.60
2018-09-06T22:20:32.485Z,17.50
2018-09-06T22:23:01.647Z,17.50
2018-09-06T22:25:29.095Z,17.50
2018-09-06T22:27:56.448Z,17.50
2018-09-06T22:30:23.779Z,17.50
2018-09-06T22:32:51.201Z,17.50
2018-09-06T22:35:18.661Z,17.50
2018-09-06T22:37:46.020Z,17.50
2018-09-06T22:40:13.470Z,17.40
2018-09-06T22:42:40.824Z,17.40
2018-09-06T22:45:08.202Z,17.50
2018-09-06T22:47:35.587Z,17.50
2018-09-06T22:50:02.995Z,17.40
2018-09-06T22:52:30.395Z,17.40
2018-09-06T22:54:57.746Z,17.40
2018-09-06T22:57:25.591Z,17.20
2018-09-06T22:59:52.925Z,17.20
2018-09-06T23:02:20.411Z,17.20
2018-09-06T23:04:47.766Z,17.30
2018-09-06T23:07:15.195Z,17.20
2018-09-06T23:09:42.627Z,17.30
2018-09-06T23:12:09.998Z,17.20
2018-09-06T23:14:37.403Z,17.20
2018-09-06T23:17:05.248Z,17.20
2018-09-06T23:19:32.599Z,17.20
2018-09-06T23:22:00.047Z,17.10
2018-09-06T23:24:27.478Z,17.20
2018-09-06T23:26:54.886Z,17.10
2018-09-06T23:29:22.403Z,17.10
2018-09-06T23:31:50.079Z,17.00
2018-09-06T23:34:17.536Z,17.00
2018-09-06T23:36:44.991Z,17.00
2018-09-06T23:39:12.467Z,16.90
2018-09-06T23:41:39.887Z,16.90
2018-09-06T23:44:07.598Z,17.00
2018-09-06T23:46:35.054Z,16.90
2018-09-06T23:49:02.473Z,17.00
2018-09-06T23:51:29.932Z,17.00
2018-09-06T23:53:57.403Z,17.00
2018-09-06T23:56:24.808Z,17.00
2018-09-06T23:58:52.271Z,17.00
